Time;durP1;ratioP1;P1;durP2;ratioP2;P2;SDS_P1;SDS_P2;PMS_P1;PMS_P2;Temp;Humidity;BMP_temperature;BMP_pressure;BME280_temperature;BME280_humidity;BME280_pressure;Samples;Min_cycle;Max_cycle;Signal;HPM_P1;HPM_P2
2023/02/02 00:01:50;;;;;;;32.47;4.72;;;3.80;99.90;;;;;;5010350;28;20041;-68
2023/02/02 00:04:21;;;;;;;25.67;3.90;;;3.80;99.90;;;;;;4993843;28;20054;-68
2023/02/02 00:06:47;;;;;;;18.83;3.25;;;3.80;99.90;;;;;;5012873;28;20038;-68
2023/02/02 00:09:16;;;;;;;31.73;4.18;;;3.80;99.90;;;;;;5009210;28;20556;-68
2023/02/02 00:11:43;;;;;;;27.17;3.42;;;3.80;99.90;;;;;;4993924;28;20058;-68
2023/02/02 00:14:09;;;;;;;26.85;4.40;;;3.80;99.90;;;;;;5010975;28;20109;-68
2023/02/02 00:16:38;;;;;;;31.40;4.38;;;3.90;99.90;;;;;;4992597;28;20116;-68
2023/02/02 00:19:07;;;;;;;28.70;3.92;;;3.80;99.90;;;;;;4993235;28;20287;-68
2023/02/02 00:21:33;;;;;;;25.35;4.03;;;3.90;99.90;;;;;;5012600;28;20048;-68
2023/02/02 00:23:59;;;;;;;29.98;4.20;;;3.90;99.90;;;;;;5011346;28;20053;-68
2023/02/02 00:26:25;;;;;;;25.45;3.80;;;3.90;99.90;;;;;;5011863;28;20038;-68
2023/02/02 00:28:51;;;;;;;31.00;4.50;;;3.90;99.90;;;;;;5012284;28;20112;-68
2023/02/02 00:31:17;;;;;;;25.55;3.47;;;4.00;99.90;;;;;;5010197;28;20128;-68
2023/02/02 00:33:47;;;;;;;29.83;3.47;;;4.00;99.90;;;;;;5012293;28;20445;-68
2023/02/02 00:36:13;;;;;;;22.33;3.78;;;4.10;99.90;;;;;;4992385;28;20060;-68
2023/02/02 00:38:38;;;;;;;31.30;3.67;;;4.10;99.90;;;;;;5011602;28;20057;-68
2023/02/02 00:41:06;;;;;;;30.20;3.60;;;4.20;99.90;;;;;;5012838;28;20053;-68
2023/02/02 00:43:32;;;;;;;23.27;3.47;;;4.30;99.90;;;;;;5009887;28;20903;-68
2023/02/02 00:45:58;;;;;;;24.17;3.17;;;4.40;99.90;;;;;;4992932;28;20129;-68
2023/02/02 00:48:24;;;;;;;29.92;4.05;;;4.30;99.90;;;;;;5011332;28;20041;-68
2023/02/02 00:50:51;;;;;;;24.95;3.00;;;4.40;99.90;;;;;;4994736;28;20216;-68
2023/02/02 00:53:17;;;;;;;32.10;3.38;;;4.50;99.90;;;;;;5007607;28;20041;-68
2023/02/02 00:55:43;;;;;;;28.15;3.42;;;4.50;99.90;;;;;;5010020;28;20170;-68
2023/02/02 00:58:08;;;;;;;27.10;4.03;;;4.50;99.90;;;;;;5009593;28;20042;-68
2023/02/02 01:00:34;;;;;;;24.95;4.05;;;4.60;99.90;;;;;;5009570;28;20066;-68
2023/02/02 01:03:03;;;;;;;28.35;3.53;;;4.60;99.90;;;;;;5011458;28;20084;-68
2023/02/02 01:05:30;;;;;;;22.25;3.70;;;4.60;99.90;;;;;;5011422;28;20117;-68
2023/02/02 01:07:56;;;;;;;27.73;3.35;;;4.80;99.90;;;;;;5009073;28;20064;-67
2023/02/02 01:10:22;;;;;;;23.05;3.63;;;4.80;99.90;;;;;;5012104;28;20037;-68
2023/02/02 01:12:47;;;;;;;29.77;4.35;;;4.80;99.90;;;;;;5011988;28;20386;-68
2023/02/02 01:15:13;;;;;;;25.15;3.30;;;4.80;99.90;;;;;;4993495;28;20482;-68
2023/02/02 01:17:39;;;;;;;23.33;4.53;;;4.80;99.90;;;;;;5011239;28;20797;-67
2023/02/02 01:20:06;;;;;;;24.92;3.55;;;4.80;99.90;;;;;;5009340;28;20038;-68
2023/02/02 01:22:33;;;;;;;23.00;3.13;;;4.90;99.90;;;;;;5011876;28;20070;-68
2023/02/02 01:24:59;;;;;;;29.98;3.47;;;4.90;99.90;;;;;;4993961;28;20048;-68
2023/02/02 01:27:25;;;;;;;28.00;3.05;;;4.90;99.90;;;;;;5001371;28;20107;-68
2023/02/02 01:29:51;;;;;;;32.25;3.40;;;4.90;99.90;;;;;;5006883;28;20045;-68
2023/02/02 01:32:17;;;;;;;31.05;3.70;;;5.00;99.90;;;;;;4994439;28;20042;-68
2023/02/02 01:34:43;;;;;;;35.15;3.50;;;5.00;99.90;;;;;;5011692;28;20068;-68
2023/02/02 01:37:09;;;;;;;23.27;2.60;;;5.00;99.90;;;;;;5016787;28;20068;-68
2023/02/02 01:39:35;;;;;;;20.63;2.92;;;5.00;99.90;;;;;;5015399;28;20041;-68
2023/02/02 01:42:02;;;;;;;20.60;2.95;;;5.00;99.90;;;;;;5018287;28;20057;-68
2023/02/02 01:45:09;;;;;;;30.17;4.07;;;5.10;99.90;;;;;;5016565;28;20496;-69
2023/02/02 01:47:40;;;;;;;20.75;2.88;;;5.10;99.90;;;;;;5017287;28;20477;-67
2023/02/02 01:50:08;;;;;;;23.70;2.72;;;5.10;99.90;;;;;;5013986;28;20257;-67
2023/02/02 01:52:34;;;;;;;25.40;3.78;;;5.10;99.90;;;;;;5018722;28;20596;-67
2023/02/02 01:55:07;;;;;;;30.98;3.00;;;5.20;99.90;;;;;;5017631;28;20056;-67
2023/02/02 01:57:42;;;;;;;21.90;2.75;;;5.20;99.90;;;;;;5018043;28;20041;-68
2023/02/02 02:00:13;;;;;;;29.00;3.70;;;5.20;99.90;;;;;;5017046;28;20080;-67
2023/02/02 02:02:41;;;;;;;24.92;2.78;;;5.30;99.90;;;;;;5014234;28;20046;-64
2023/02/02 02:05:08;;;;;;;20.88;2.83;;;5.40;99.90;;;;;;4973354;28;20062;-65
2023/02/02 02:07:34;;;;;;;21.92;2.78;;;5.40;99.90;;;;;;5016549;28;20045;-65
2023/02/02 02:10:00;;;;;;;17.80;2.67;;;5.40;99.90;;;;;;4998268;28;20038;-64
2023/02/02 02:12:26;;;;;;;26.52;3.42;;;5.50;99.90;;;;;;5016288;28;20449;-64
2023/02/02 02:18:05;;;;;;;25.05;2.95;;;5.60;99.90;;;;;;4958701;28;20138;-64
2023/02/02 02:27:59;;;;;;;16.65;2.67;;;5.70;99.90;;;;;;4911478;29;20044;-65
2023/02/02 02:30:33;;;;;;;23.45;3.00;;;5.70;99.90;;;;;;4902862;29;20040;-64
2023/02/02 02:33:22;;;;;;;26.00;3.13;;;5.80;99.90;;;;;;4999011;28;20057;-65
2023/02/02 02:36:07;;;;;;;17.70;2.90;;;5.80;99.90;;;;;;5013402;28;20054;-65
2023/02/02 02:38:46;;;;;;;23.40;2.83;;;5.80;99.90;;;;;;4995219;28;20042;-65
2023/02/02 02:41:38;;;;;;;22.48;3.28;;;5.80;99.90;;;;;;4996450;28;20423;-65
2023/02/02 02:44:09;;;;;;;20.35;3.00;;;6.00;99.90;;;;;;5016927;28;20115;-66
2023/02/02 02:46:36;;;;;;;20.73;3.28;;;6.00;99.90;;;;;;4994877;28;20050;-65
2023/02/02 02:49:02;;;;;;;22.35;3.05;;;6.00;99.90;;;;;;4990993;28;20049;-65
2023/02/02 02:51:44;;;;;;;23.80;3.30;;;6.00;99.90;;;;;;5010808;28;20418;-65
2023/02/02 02:54:36;;;;;;;16.92;2.65;;;6.00;99.90;;;;;;5013089;28;20034;-65
2023/02/02 02:57:14;;;;;;;23.85;3.65;;;6.00;99.90;;;;;;4995651;28;20037;-65
2023/02/02 02:59:52;;;;;;;20.73;3.35;;;6.00;99.90;;;;;;5012128;28;20049;-65
2023/02/02 03:02:38;;;;;;;19.90;2.83;;;6.00;99.90;;;;;;5012150;28;20038;-67
2023/02/02 03:05:10;;;;;;;11.80;2.25;;;6.10;99.90;;;;;;5012210;28;20061;-66
2023/02/02 03:07:49;;;;;;;16.40;1.88;;;6.10;99.90;;;;;;4995201;28;20045;-66
2023/02/02 03:10:20;;;;;;;11.63;1.92;;;6.10;99.90;;;;;;4992303;28;20056;-66
2023/02/02 03:12:47;;;;;;;10.88;1.20;;;6.10;99.90;;;;;;4994814;28;20045;-66
2023/02/02 03:15:14;;;;;;;12.85;1.38;;;6.10;99.90;;;;;;4995090;28;20042;-67
2023/02/02 03:17:42;;;;;;;12.57;2.65;;;6.00;99.90;;;;;;4994155;28;20037;-66
2023/02/02 03:20:09;;;;;;;8.60;1.38;;;6.00;99.90;;;;;;5008944;28;20045;-67
2023/02/02 03:22:34;;;;;;;18.60;1.48;;;6.00;99.90;;;;;;4993926;28;20135;-67
2023/02/02 03:25:00;;;;;;;16.65;1.65;;;6.00;99.90;;;;;;4993353;28;20451;-65
2023/02/02 03:27:27;;;;;;;13.43;1.50;;;6.00;99.90;;;;;;5010470;28;20037;-66
2023/02/02 03:29:53;;;;;;;15.88;2.00;;;6.00;99.90;;;;;;5008759;28;20582;-66
2023/02/02 03:32:19;;;;;;;14.52;1.52;;;5.90;99.90;;;;;;4993420;28;20462;-67
2023/02/02 03:34:44;;;;;;;13.07;1.83;;;5.90;99.90;;;;;;4993150;28;20057;-67
2023/02/02 03:37:10;;;;;;;14.50;1.60;;;6.00;99.90;;;;;;4993192;28;20074;-67
2023/02/02 03:39:36;;;;;;;9.45;1.45;;;6.00;99.90;;;;;;5012235;28;20078;-68
2023/02/02 03:42:01;;;;;;;11.85;1.25;;;6.00;99.90;;;;;;4994640;28;20398;-65
2023/02/02 03:44:27;;;;;;;8.18;1.30;;;6.00;99.90;;;;;;4994755;28;20037;-67
2023/02/02 03:46:53;;;;;;;8.02;1.40;;;5.90;99.90;;;;;;4992155;28;20120;-67
2023/02/02 03:49:19;;;;;;;8.50;1.60;;;5.90;99.90;;;;;;4992946;28;20125;-66
2023/02/02 03:51:45;;;;;;;9.52;1.63;;;5.90;99.90;;;;;;4993150;28;20046;-67
2023/02/02 03:54:11;;;;;;;9.57;1.10;;;5.80;99.90;;;;;;4993937;28;20398;-67
2023/02/02 03:56:37;;;;;;;13.85;1.40;;;5.80;99.90;;;;;;4992369;28;20045;-66
2023/02/02 03:59:03;;;;;;;8.90;0.90;;;5.80;99.90;;;;;;4992554;28;20033;-66
2023/02/02 04:01:29;;;;;;;9.20;1.20;;;5.80;99.90;;;;;;4992482;28;20054;-66
2023/02/02 04:03:56;;;;;;;11.73;1.58;;;5.70;99.90;;;;;;4992856;28;20068;-66
2023/02/02 04:06:23;;;;;;;6.80;1.02;;;5.80;99.90;;;;;;4991798;28;20038;-66
2023/02/02 04:08:49;;;;;;;11.90;1.45;;;5.70;99.90;;;;;;4976764;28;20060;-67
2023/02/02 04:11:15;;;;;;;11.82;1.55;;;5.70;99.90;;;;;;4992777;28;20050;-67
2023/02/02 04:13:42;;;;;;;13.05;1.20;;;5.70;99.90;;;;;;5012503;28;20045;-66
2023/02/02 04:16:08;;;;;;;13.02;1.45;;;5.70;99.90;;;;;;5003136;28;20050;-67
2023/02/02 04:18:36;;;;;;;12.48;1.42;;;5.60;99.90;;;;;;5009205;28;20637;-67
2023/02/02 04:21:03;;;;;;;9.02;0.90;;;5.60;99.90;;;;;;4993028;28;20041;-66
2023/02/02 04:23:29;;;;;;;9.73;1.33;;;5.60;99.90;;;;;;5011413;28;20605;-67
2023/02/02 04:25:56;;;;;;;10.50;1.05;;;5.60;99.90;;;;;;4992630;28;20132;-66
2023/02/02 04:28:22;;;;;;;12.60;1.17;;;5.60;99.90;;;;;;4994300;28;20042;-66
2023/02/02 04:30:49;;;;;;;14.90;1.40;;;5.60;99.90;;;;;;4993849;28;20121;-66
2023/02/02 04:33:15;;;;;;;13.77;1.38;;;5.60;99.90;;;;;;4993762;28;20509;-67
2023/02/02 04:35:42;;;;;;;17.25;1.77;;;5.60;99.90;;;;;;4992615;28;20049;-66
2023/02/02 04:38:08;;;;;;;10.68;1.10;;;5.60;99.90;;;;;;4992830;28;20046;-66
2023/02/02 04:40:41;;;;;;;12.13;0.90;;;5.60;99.90;;;;;;4993438;28;20156;-66
2023/02/02 04:43:07;;;;;;;11.10;1.20;;;5.50;99.90;;;;;;4993688;28;20037;-66
2023/02/02 04:45:33;;;;;;;16.77;1.42;;;5.50;99.90;;;;;;4992562;28;20046;-67
2023/02/02 04:47:58;;;;;;;10.68;1.35;;;5.50;99.90;;;;;;5010523;28;20042;-66
2023/02/02 04:50:24;;;;;;;17.05;1.42;;;5.50;99.90;;;;;;5011227;28;20046;-67
2023/02/02 04:52:50;;;;;;;12.32;1.70;;;5.50;99.90;;;;;;4975925;28;20042;-67
2023/02/02 04:55:16;;;;;;;10.75;1.60;;;5.50;99.90;;;;;;4976281;28;20034;-67
2023/02/02 04:57:42;;;;;;;12.15;2.03;;;5.50;99.90;;;;;;4991888;28;20478;-67
2023/02/02 05:00:10;;;;;;;9.77;1.20;;;5.50;99.90;;;;;;5007100;28;20030;-67
2023/02/02 05:02:37;;;;;;;12.48;1.25;;;5.50;99.90;;;;;;4991397;28;20658;-67
2023/02/02 05:05:05;;;;;;;9.48;1.25;;;5.50;99.90;;;;;;4993195;28;20038;-68
2023/02/02 05:07:31;;;;;;;13.18;1.33;;;5.50;99.90;;;;;;5009860;28;20044;-67
2023/02/02 05:09:56;;;;;;;12.82;1.10;;;5.40;99.90;;;;;;4990700;28;20071;-68
2023/02/02 05:12:22;;;;;;;12.18;1.20;;;5.50;99.90;;;;;;4988460;28;20081;-67
2023/02/02 05:14:48;;;;;;;8.05;0.80;;;5.50;99.90;;;;;;5010610;28;20128;-67
2023/02/02 05:17:14;;;;;;;8.13;0.98;;;5.40;99.90;;;;;;4992177;28;20041;-68
2023/02/02 05:19:40;;;;;;;18.67;2.13;;;5.50;99.90;;;;;;4991572;28;20038;-68
2023/02/02 05:22:06;;;;;;;11.02;1.30;;;5.50;99.90;;;;;;5010526;28;20540;-68
2023/02/02 05:24:32;;;;;;;6.18;1.20;;;5.40;99.90;;;;;;5005755;28;20050;-67
2023/02/02 05:26:59;;;;;;;10.88;1.20;;;5.40;99.90;;;;;;4992176;28;20046;-67
2023/02/02 05:29:29;;;;;;;9.60;0.90;;;5.40;99.90;;;;;;4992100;28;20104;-68
2023/02/02 05:31:55;;;;;;;8.95;1.17;;;5.40;99.90;;;;;;4991096;28;20550;-68
2023/02/02 05:34:22;;;;;;;7.57;1.00;;;5.40;99.90;;;;;;4991330;28;20478;-69
2023/02/02 05:36:48;;;;;;;13.20;1.50;;;5.40;99.90;;;;;;4990870;28;20050;-68
2023/02/02 05:39:14;;;;;;;8.55;0.70;;;5.40;99.90;;;;;;4990064;28;20041;-68
2023/02/02 05:41:40;;;;;;;12.55;1.05;;;5.40;99.90;;;;;;4992303;28;20038;-68
2023/02/02 05:44:08;;;;;;;12.05;1.20;;;5.40;99.90;;;;;;5006357;28;20045;-67
2023/02/02 05:46:34;;;;;;;7.95;1.00;;;5.40;99.90;;;;;;5008802;28;20045;-68
2023/02/02 05:49:03;;;;;;;14.43;1.52;;;5.40;99.90;;;;;;4992882;28;20496;-68
2023/02/02 05:51:33;;;;;;;11.25;0.90;;;5.40;99.90;;;;;;4991371;28;20501;-68
2023/02/02 05:53:59;;;;;;;8.60;0.77;;;5.30;99.90;;;;;;4991150;28;20088;-68
2023/02/02 05:56:24;;;;;;;12.52;1.10;;;5.40;99.90;;;;;;4991827;28;20042;-68
2023/02/02 05:58:50;;;;;;;16.40;1.35;;;5.40;99.90;;;;;;4992248;28;20034;-68
2023/02/02 06:01:17;;;;;;;13.88;1.38;;;5.40;99.90;;;;;;5005943;28;20152;-68
2023/02/02 06:03:43;;;;;;;11.50;1.30;;;5.40;99.90;;;;;;4989867;28;20075;-68
2023/02/02 06:06:09;;;;;;;13.02;1.33;;;5.40;99.90;;;;;;4991256;28;20046;-68
2023/02/02 06:08:35;;;;;;;15.85;1.25;;;5.40;99.90;;;;;;4992553;28;20077;-68
2023/02/02 06:11:12;;;;;;;10.82;1.27;;;5.40;99.90;;;;;;4991501;28;20065;-68
2023/02/02 06:13:38;;;;;;;14.70;1.30;;;5.40;99.90;;;;;;4991885;28;20104;-68
2023/02/02 06:16:04;;;;;;;13.35;1.58;;;5.40;99.90;;;;;;5009359;28;20034;-68
2023/02/02 06:18:30;;;;;;;15.00;1.10;;;5.40;99.90;;;;;;4976928;28;20049;-68
2023/02/02 06:21:00;;;;;;;15.52;1.70;;;5.40;99.90;;;;;;4990743;28;20038;-68
2023/02/02 06:23:26;;;;;;;9.93;1.23;;;5.40;99.90;;;;;;4993542;28;20046;-68
2023/02/02 06:25:52;;;;;;;12.27;1.13;;;5.40;99.90;;;;;;4989819;28;20125;-69
2023/02/02 06:28:18;;;;;;;15.80;1.48;;;5.40;99.90;;;;;;4994393;28;20132;-68
2023/02/02 06:30:44;;;;;;;15.73;1.20;;;5.40;99.90;;;;;;4992744;28;20046;-69
2023/02/02 06:33:10;;;;;;;13.90;1.35;;;5.40;99.90;;;;;;4995125;28;20044;-66
2023/02/02 06:35:36;;;;;;;13.18;1.20;;;5.40;99.90;;;;;;4992065;28;20045;-67
2023/02/02 06:38:01;;;;;;;13.20;1.58;;;5.40;99.90;;;;;;4996122;28;20067;-67
2023/02/02 06:40:28;;;;;;;12.77;1.25;;;5.40;99.90;;;;;;4994967;28;20037;-67
2023/02/02 06:42:58;;;;;;;6.88;1.02;;;5.40;99.90;;;;;;4995701;28;20104;-67
2023/02/02 06:45:25;;;;;;;14.85;1.58;;;5.40;99.90;;;;;;4992475;28;20041;-67
2023/02/02 06:48:02;;;;;;;14.07;1.27;;;5.40;99.90;;;;;;4993168;28;20486;-67
2023/02/02 06:50:42;;;;;;;10.77;1.27;;;5.40;99.90;;;;;;4993076;28;20042;-68
2023/02/02 06:53:07;;;;;;;11.15;1.30;;;5.40;99.90;;;;;;4990195;28;20091;-67
2023/02/02 06:55:33;;;;;;;8.15;1.50;;;5.40;99.90;;;;;;4984017;28;20038;-67
2023/02/02 06:57:59;;;;;;;11.27;1.20;;;5.40;99.90;;;;;;5008346;28;20371;-68
2023/02/02 07:00:27;;;;;;;12.52;1.10;;;5.40;99.90;;;;;;5007201;28;20498;-67
2023/02/02 07:02:53;;;;;;;15.40;1.50;;;5.40;99.90;;;;;;5008251;28;20049;-68
2023/02/02 07:05:20;;;;;;;10.13;1.77;;;5.40;99.90;;;;;;4991206;28;20045;-68
2023/02/02 07:07:46;;;;;;;15.45;1.63;;;5.40;99.90;;;;;;4990345;28;20464;-67
2023/02/02 07:10:13;;;;;;;9.55;1.30;;;5.40;99.90;;;;;;4988648;28;20049;-67
2023/02/02 07:12:39;;;;;;;13.48;1.20;;;5.40;99.90;;;;;;4991562;28;20139;-68
2023/02/02 07:15:06;;;;;;;9.63;0.95;;;5.40;99.90;;;;;;5012570;28;20054;-67
2023/02/02 07:17:31;;;;;;;9.75;1.17;;;5.50;99.90;;;;;;4994934;28;20038;-67
2023/02/02 07:19:57;;;;;;;10.25;1.13;;;5.40;99.90;;;;;;4995132;28;20034;-67
2023/02/02 07:22:23;;;;;;;13.88;1.05;;;5.40;99.90;;;;;;5013203;28;20536;-67
2023/02/02 07:24:49;;;;;;;19.02;1.45;;;5.40;99.90;;;;;;4994426;28;20046;-66
2023/02/02 07:27:14;;;;;;;11.52;1.10;;;5.50;99.90;;;;;;4996043;28;20057;-67
2023/02/02 07:29:41;;;;;;;5.85;0.90;;;5.40;99.90;;;;;;5013638;28;20030;-67
2023/02/02 07:32:06;;;;;;;9.32;1.20;;;5.40;99.90;;;;;;4994939;28;20050;-68
2023/02/02 07:34:32;;;;;;;7.97;1.40;;;5.40;99.90;;;;;;5012162;28;20041;-66
2023/02/02 07:36:59;;;;;;;13.65;1.27;;;5.40;99.90;;;;;;5012863;28;20626;-67
2023/02/02 07:39:25;;;;;;;9.55;1.13;;;5.40;99.90;;;;;;4995221;28;20065;-67
2023/02/02 07:41:50;;;;;;;12.98;1.23;;;5.40;99.90;;;;;;4993585;28;20042;-66
2023/02/02 07:44:16;;;;;;;9.43;1.38;;;5.40;99.90;;;;;;5013633;28;20037;-67
2023/02/02 07:46:43;;;;;;;8.63;1.40;;;5.50;99.90;;;;;;4995745;28;20053;-66
2023/02/02 07:49:14;;;;;;;18.35;1.73;;;5.40;99.90;;;;;;4995139;28;20053;-66
2023/02/02 07:51:40;;;;;;;12.05;1.48;;;5.50;99.90;;;;;;4995558;28;20046;-67
2023/02/02 07:54:06;;;;;;;11.85;1.50;;;5.40;99.90;;;;;;5012937;28;20030;-65
2023/02/02 07:56:32;;;;;;;11.10;1.30;;;5.50;99.90;;;;;;4996070;28;20042;-66
2023/02/02 07:58:58;;;;;;;6.97;1.25;;;5.50;99.90;;;;;;4995989;28;20111;-66
2023/02/02 08:01:25;;;;;;;7.22;1.30;;;5.50;99.90;;;;;;4994938;28;20038;-66
2023/02/02 08:03:52;;;;;;;13.57;1.77;;;5.50;99.90;;;;;;5012816;28;20091;-66
2023/02/02 08:06:24;;;;;;;10.27;1.58;;;5.50;99.90;;;;;;5012706;28;20685;-66
2023/02/02 08:08:51;;;;;;;6.32;1.65;;;5.40;99.90;;;;;;4993442;28;20038;-66
2023/02/02 08:11:20;;;;;;;7.82;1.60;;;5.50;99.90;;;;;;4978749;28;20585;-66
2023/02/02 08:13:51;;;;;;;14.82;2.20;;;5.50;99.90;;;;;;5012551;28;20038;-66
2023/02/02 08:16:17;;;;;;;6.43;2.10;;;5.50;99.90;;;;;;5011473;28;20402;-66
2023/02/02 08:18:43;;;;;;;6.80;1.65;;;5.50;99.90;;;;;;5012585;28;20053;-66
2023/02/02 08:21:09;;;;;;;10.38;2.00;;;5.60;99.90;;;;;;5011684;28;20049;-66
2023/02/02 08:23:37;;;;;;;8.35;2.10;;;5.60;99.90;;;;;;5011781;28;20046;-66
2023/02/02 08:26:10;;;;;;;9.63;2.20;;;5.60;99.90;;;;;;5010489;28;20045;-66
2023/02/02 08:28:37;;;;;;;6.85;1.90;;;5.60;99.90;;;;;;4994141;28;20064;-66
2023/02/02 08:31:28;;;;;;;10.60;2.25;;;5.60;99.90;;;;;;4993586;28;20124;-66
2023/02/02 08:33:56;;;;;;;6.20;1.60;;;5.70;99.90;;;;;;5011494;28;20460;-66
2023/02/02 08:36:24;;;;;;;7.95;1.90;;;5.60;99.90;;;;;;5011146;28;20049;-66
2023/02/02 08:38:50;;;;;;;9.10;2.22;;;5.70;99.90;;;;;;5010870;28;20124;-66
2023/02/02 08:41:18;;;;;;;11.38;2.00;;;5.70;99.90;;;;;;5011711;28;20129;-66
2023/02/02 08:43:44;;;;;;;4.65;1.35;;;5.70;99.90;;;;;;5011874;28;20038;-66
2023/02/02 08:46:11;;;;;;;4.32;1.40;;;5.70;99.90;;;;;;4992755;28;20500;-67
2023/02/02 08:48:38;;;;;;;5.57;1.60;;;5.70;99.90;;;;;;4993356;28;20124;-67
2023/02/02 08:51:05;;;;;;;5.00;1.30;;;5.70;99.90;;;;;;4992659;28;20045;-66
2023/02/02 08:53:32;;;;;;;7.15;2.05;;;5.80;99.90;;;;;;5011319;28;20073;-67
2023/02/02 08:56:03;;;;;;;5.88;1.80;;;5.80;99.90;;;;;;5010665;28;20041;-66
2023/02/02 08:58:29;;;;;;;5.20;1.40;;;5.80;99.90;;;;;;4985948;28;20034;-66
2023/02/02 09:01:03;;;;;;;6.18;1.33;;;5.90;99.90;;;;;;5009921;28;20045;-67
2023/02/02 09:03:29;;;;;;;3.83;1.40;;;5.90;99.90;;;;;;5011018;28;20377;-66
2023/02/02 09:05:54;;;;;;;5.50;1.58;;;6.00;99.90;;;;;;5010854;28;20037;-67
2023/02/02 09:08:20;;;;;;;4.63;1.60;;;6.00;99.90;;;;;;4991529;28;20411;-66
2023/02/02 09:10:46;;;;;;;4.10;1.10;;;6.00;99.90;;;;;;5010766;28;20056;-68
2023/02/02 09:13:12;;;;;;;5.68;1.20;;;6.10;99.90;;;;;;5011311;28;20437;-67
2023/02/02 09:15:38;;;;;;;3.22;1.02;;;6.20;99.90;;;;;;4993007;28;20674;-67
2023/02/02 09:18:03;;;;;;;4.43;0.95;;;6.20;99.90;;;;;;4993757;28;20073;-66
2023/02/02 09:20:29;;;;;;;3.83;1.08;;;6.20;99.90;;;;;;5010583;28;20065;-67
2023/02/02 09:22:56;;;;;;;4.32;0.70;;;6.20;99.90;;;;;;4992403;28;20537;-68
2023/02/02 09:25:23;;;;;;;4.00;1.10;;;6.30;99.90;;;;;;5010537;28;20041;-66
2023/02/02 09:27:50;;;;;;;5.40;0.80;;;6.30;99.90;;;;;;5012249;28;20071;-66
2023/02/02 09:30:16;;;;;;;2.90;0.95;;;6.30;99.90;;;;;;4993402;28;20597;-67
2023/02/02 09:32:42;;;;;;;8.88;1.20;;;6.30;99.90;;;;;;4992070;28;20500;-67
2023/02/02 09:35:07;;;;;;;5.13;1.13;;;6.40;99.90;;;;;;4991777;28;20062;-67
2023/02/02 09:37:34;;;;;;;5.05;0.90;;;6.40;99.90;;;;;;4992987;28;20494;-67
2023/02/02 09:40:00;;;;;;;5.35;0.80;;;6.50;99.90;;;;;;4992868;28;20076;-66
2023/02/02 09:42:57;;;;;;;4.18;0.80;;;6.50;99.90;;;;;;4992171;28;20459;-67
2023/02/02 09:45:35;;;;;;;4.07;0.82;;;6.50;99.90;;;;;;4992724;28;20513;-67
2023/02/02 09:48:35;;;;;;;4.55;0.90;;;6.50;99.90;;;;;;5008832;28;20042;-66
2023/02/02 09:51:08;;;;;;;4.47;0.85;;;6.60;99.90;;;;;;5009423;28;20050;-67
2023/02/02 09:53:57;;;;;;;3.00;0.40;;;6.60;99.90;;;;;;5006810;28;20038;-66
2023/02/02 09:56:36;;;;;;;6.10;0.90;;;6.60;99.90;;;;;;4976685;28;20092;-66
2023/02/02 09:59:05;;;;;;;6.80;0.90;;;6.60;99.90;;;;;;5014049;28;20040;-67
2023/02/02 10:01:35;;;;;;;5.47;0.73;;;6.60;99.90;;;;;;5013888;28;20042;-67
2023/02/02 10:04:06;;;;;;;5.25;1.00;;;6.70;99.90;;;;;;4997243;28;20116;-66
2023/02/02 10:06:38;;;;;;;4.45;0.80;;;6.70;99.90;;;;;;4996327;28;20100;-66
2023/02/02 10:09:15;;;;;;;3.38;0.50;;;6.80;99.90;;;;;;5013688;28;20037;-67
2023/02/02 10:11:50;;;;;;;4.45;0.75;;;6.80;99.90;;;;;;5014039;28;20042;-68
2023/02/02 10:14:22;;;;;;;2.92;0.65;;;6.90;99.90;;;;;;5014245;28;20041;-68
2023/02/02 10:16:51;;;;;;;2.22;0.68;;;6.80;99.90;;;;;;4996283;28;20042;-68
2023/02/02 10:19:17;;;;;;;2.70;0.70;;;6.80;99.90;;;;;;5013947;28;20041;-67
2023/02/02 10:21:42;;;;;;;4.80;0.90;;;6.90;99.90;;;;;;5013917;28;20045;-67
2023/02/02 10:24:21;;;;;;;1.85;0.63;;;6.90;99.90;;;;;;4995810;28;20076;-67
2023/02/02 10:26:54;;;;;;;4.80;0.80;;;6.90;99.90;;;;;;5013811;28;20044;-69
2023/02/02 10:29:55;;;;;;;3.20;0.70;;;6.90;99.90;;;;;;4995648;28;20394;-67
2023/02/02 10:32:58;;;;;;;5.40;0.85;;;6.90;99.90;;;;;;4967501;28;20050;-66
2023/02/02 10:35:46;;;;;;;3.75;0.70;;;7.00;99.90;;;;;;5012942;28;20116;-67
2023/02/02 10:38:27;;;;;;;4.00;0.85;;;7.00;99.90;;;;;;5013367;28;20040;-66
2023/02/02 10:41:09;;;;;;;2.90;0.70;;;7.00;99.90;;;;;;5005570;28;20120;-66
2023/02/02 10:43:56;;;;;;;1.65;0.63;;;6.90;99.90;;;;;;4993522;28;20111;-67
2023/02/02 10:46:39;;;;;;;4.53;1.05;;;6.90;99.90;;;;;;4995985;28;20049;-66
2023/02/02 10:49:18;;;;;;;2.60;0.73;;;7.00;99.90;;;;;;5011396;28;20044;-66
2023/02/02 10:52:12;;;;;;;4.15;1.02;;;7.00;99.90;;;;;;4988296;28;20108;-66
2023/02/02 10:55:08;;;;;;;4.47;0.90;;;7.10;99.90;;;;;;5003746;28;20069;-66
2023/02/02 10:57:46;;;;;;;1.90;0.98;;;7.10;99.90;;;;;;5009009;28;20136;-67
2023/02/02 11:00:23;;;;;;;4.63;1.00;;;7.10;99.90;;;;;;4995984;28;20037;-66
2023/02/02 11:02:51;;;;;;;4.30;0.95;;;7.10;99.90;;;;;;5013152;28;20049;-67
2023/02/02 11:08:13;;;;;;;2.58;0.77;;;7.10;99.90;;;;;;5010560;28;20048;-67
2023/02/02 11:10:39;;;;;;;4.65;0.90;;;7.10;99.90;;;;;;4994498;28;20044;-67
2023/02/02 11:13:07;;;;;;;2.97;0.93;;;7.10;99.90;;;;;;5010926;28;20050;-67
2023/02/02 11:15:33;;;;;;;3.20;0.80;;;7.20;99.90;;;;;;4989149;28;20183;-67
2023/02/02 11:18:27;;;;;;;6.82;1.10;;;7.20;99.90;;;;;;5010833;28;20124;-66
2023/02/02 11:20:54;;;;;;;3.75;0.73;;;7.20;99.90;;;;;;5008602;28;20033;-66
2023/02/02 11:23:20;;;;;;;4.00;0.73;;;7.20;99.90;;;;;;4993705;28;20049;-68
2023/02/02 11:26:00;;;;;;;4.15;1.25;;;7.20;99.90;;;;;;5012945;28;20034;-67
2023/02/02 11:28:29;;;;;;;4.35;1.42;;;7.30;99.90;;;;;;5002251;28;20034;-66
2023/02/02 11:30:55;;;;;;;5.15;1.33;;;7.20;99.90;;;;;;5010181;28;20041;-66
2023/02/02 11:33:34;;;;;;;5.70;1.10;;;7.20;99.90;;;;;;4996517;28;20065;-66
2023/02/02 11:36:03;;;;;;;6.63;1.35;;;7.20;99.90;;;;;;5009804;28;20081;-66
2023/02/02 11:38:29;;;;;;;5.40;1.02;;;7.10;99.90;;;;;;4987118;28;20104;-66
2023/02/02 11:41:01;;;;;;;6.88;1.00;;;7.10;99.90;;;;;;4994680;28;20401;-65
2023/02/02 11:43:33;;;;;;;6.22;1.13;;;7.10;99.90;;;;;;5011630;28;20038;-65
2023/02/02 11:46:04;;;;;;;6.40;1.17;;;7.10;99.90;;;;;;5004115;28;20066;-65
2023/02/02 11:48:34;;;;;;;6.30;2.03;;;7.10;99.90;;;;;;4998264;28;20069;-66
2023/02/02 11:51:02;;;;;;;4.40;1.83;;;7.10;99.90;;;;;;4993966;28;20053;-66
2023/02/02 11:53:31;;;;;;;8.10;1.60;;;7.00;99.90;;;;;;4993178;28;20040;-67
2023/02/02 11:56:09;;;;;;;6.65;1.10;;;7.10;99.90;;;;;;4991231;28;20121;-67
2023/02/02 11:58:46;;;;;;;5.00;0.57;;;7.10;99.90;;;;;;5010119;28;20042;-66
2023/02/02 12:01:31;;;;;;;5.68;0.40;;;7.00;99.90;;;;;;4990009;28;20042;-67
2023/02/02 12:03:58;;;;;;;;;;;7.10;99.90;;;;;;5011706;28;20545;-66
2023/02/02 12:06:33;;;;;;;5.90;0.82;;;7.00;99.90;;;;;;4976814;28;19917;-67
2023/02/02 12:09:06;;;;;;;4.85;0.70;;;7.00;99.90;;;;;;4994133;28;20533;-67
2023/02/02 12:12:01;;;;;;;6.05;0.60;;;7.00;99.90;;;;;;5010673;28;20053;-68
2023/02/02 12:14:53;;;;;;;6.68;1.05;;;7.00;99.90;;;;;;4992296;28;20084;-68
2023/02/02 12:17:40;;;;;;;4.93;0.60;;;7.00;99.90;;;;;;5010189;28;20042;-67
2023/02/02 12:20:40;;;;;;;5.38;0.50;;;7.00;99.90;;;;;;5009532;28;20466;-67
2023/02/02 12:23:17;;;;;;;5.20;0.68;;;7.00;99.90;;;;;;5009145;28;20052;-67
2023/02/02 12:25:52;;;;;;;6.05;0.50;;;7.00;99.90;;;;;;4992773;28;20084;-67
2023/02/02 12:28:30;;;;;;;;;;;6.90;99.90;;;;;;5010843;28;20069;-68
2023/02/02 12:31:20;;;;;;;6.15;0.47;;;6.90;99.90;;;;;;4984158;28;19921;-67
2023/02/02 12:34:10;;;;;;;4.60;0.40;;;6.90;99.90;;;;;;4993258;28;20049;-67
2023/02/02 12:37:18;;;;;;;3.50;0.70;;;6.90;99.90;;;;;;4990151;28;20061;-68
2023/02/02 12:40:01;;;;;;;7.72;0.60;;;6.90;99.90;;;;;;4983017;28;20038;-67
2023/02/02 12:43:02;;;;;;;4.95;0.60;;;6.90;99.90;;;;;;4993988;28;20104;-66
2023/02/02 12:46:00;;;;;;;4.30;0.60;;;6.90;99.90;;;;;;5010664;28;20067;-66
2023/02/02 12:48:45;;;;;;;6.03;0.60;;;6.90;99.90;;;;;;4993353;28;20100;-68
2023/02/02 12:51:23;;;;;;;7.88;0.60;;;6.90;99.90;;;;;;4991874;28;20058;-67
2023/02/02 12:54:01;;;;;;;3.85;0.68;;;6.90;99.90;;;;;;4993236;28;20042;-68
2023/02/02 12:57:05;;;;;;;5.40;0.68;;;6.90;99.90;;;;;;4993905;28;20073;-66
2023/02/02 12:59:52;;;;;;;8.70;0.95;;;6.80;99.90;;;;;;4987477;28;20387;-67
2023/02/02 13:02:21;;;;;;;5.10;0.77;;;6.80;99.90;;;;;;5008777;28;20164;-65
2023/02/02 13:05:03;;;;;;;10.52;0.95;;;6.80;99.90;;;;;;5009915;28;20564;-67
2023/02/02 13:07:43;;;;;;;11.23;3.20;;;6.80;99.90;;;;;;5010584;28;20061;-66
2023/02/02 13:10:08;;;;;;;6.53;1.08;;;6.70;99.90;;;;;;4992631;28;20109;-66
2023/02/02 13:12:51;;;;;;;7.88;1.90;;;6.70;99.90;;;;;;5008999;28;20425;-68
2023/02/02 13:15:20;;;;;;;7.55;1.60;;;6.70;99.90;;;;;;4989095;28;20080;-67
2023/02/02 13:17:59;;;;;;;7.80;2.08;;;6.70;99.90;;;;;;4989078;28;20042;-68
2023/02/02 13:20:34;;;;;;;8.77;2.30;;;6.70;99.90;;;;;;5008902;28;20046;-66
2023/02/02 13:23:07;;;;;;;5.32;2.50;;;6.70;99.90;;;;;;5007673;28;20046;-68
2023/02/02 13:25:39;;;;;;;11.32;2.90;;;6.70;99.90;;;;;;4984694;28;20052;-67